Tuttle, Idaho
Current Conditions -  °F | °C
As of 7:53 PM on Friday 21 Nov 2014 (Local Time) from KJER Reporting Station
Overcast Overcast  
Wind Chill: 33°   Ceiling: 11000
Heat Index: 38°   Visibility: 10mi
Dew Point: 30°   Wind: 7mph
Humidity: 73%   Direction: 90°E
Pressure: 29.92"   Gusts: NA
Location:  43.0634°N, 114.867°W
Report Text: KJER 220253Z AUTO 09006KT 10SM OVC110 03/M01 A2992 RMK AO2 SLP149 T00331011 56008
Loading
Personal Weather Stations






























Interactive Weather Map New forecast layout! Learn more

10-Day Weather Forecast

Advertisements
Track Severe Weather on mobile